Agat, GU

10:09 AM ChST on September 02, 2014 (GMT +1000)
West Tinian | Change Station
CLOSE
Current Station
Airport
Location: Peipeinimaru,
Elevation: 269 ft
Nearby Weather Stations

Elev 269 ft 15.00 °N, 145.62 °E | Updated 13 minutes ago

Mostly Cloudy
Mostly Cloudy
86 °F
Feels Like 99 °F
N
6
Wind Variable Wind from SW

Today
High -- | Low -- °F
--% Chance of Precip.
Yesterday
High -- | Low -- °F
Precip. -- in
6:10 AM 6:32 PM
Waxing Crescent, 45% visible
Pressure 29.78 in
Visibility 7.0 miles
Clouds Few 1600 ft
Few 6000 ft
Mostly Cloudy 15000 ft
Heat Index 99 °F
Dew Point 79 °F
Humidity 79%
Rainfall 0.00 in
Snow Depth Not available.
UV 6 out of 12
Pollen Not available.
Air Quality Not available.
Flu Activity Not available.
METAR PGWT 012356Z 23005KT 7SM FEW016 FEW060 BKN150 30/26 A2978

More Conditions Fewer Conditions

Pressure 29.78 in
Visibility 7.0 miles
Clouds Few 1600 ft
Few 6000 ft
Mostly Cloudy 15000 ft
Heat Index 99 °F
Dew Point 79 °F
Humidity 79%
Rainfall 0.00 in
Snow Depth Not available.
UV 6 out of 12
Pollen Not available.
Air Quality Not available.
Flu Activity Not available.
METAR PGWT 012356Z 23005KT 7SM FEW016 FEW060 BKN150 30/26 A2978

More Conditions Fewer Conditions

10-Day Weather Forecast

Almanac

Astronomy

Sep. 02, 2014 Rise Set
Actual Time 6:10 AM ChST 6:32 PM ChST
Civil Twilight 5:48 AM ChST 6:53 PM ChST
Nautical Twilight 5:23 AM ChST 7:18 PM ChST
Astronomical Twilight 4:58 AM ChST 7:43 PM ChST
Moon 12:09 PM ChST 11:58 PM ChST
Length of Visible Light 13h 05m
Length of Day
12h 22m
Tomorrow will be 0m 43s shorter.
Waxing Crescent, 45% of the Moon is Illuminated
Sep 1
Waxing Crescent
Sep 2
First Quarter
Sep 8
Full
Sep 15
Last Quarter
Sep 24
New

Community

WunderPhotos

Upload Photos

1,749,444 photos uploaded!

Nearby

Snow Depth

Station Depth Elevation
No new snow has been reported.

Earthquake Activity

City Distance Mag. Time & Date
No recent earthquake activity has been reported nearby.
Minimum magnitude displayed is 2.5.

Coastal Water Temperatures

Place Temperature
No Stations Reporting

Nearby Weather Stations